Time;durP1;ratioP1;P1;durP2;ratioP2;P2;SDS_P1;SDS_P2;PMS_P1;PMS_P2;Temp;Humidity;BMP_temperature;BMP_pressure;BME280_temperature;BME280_humidity;BME280_pressure;Samples;Min_cycle;Max_cycle;Signal;HPM_P1;HPM_P2
2023/12/24 15:44:54;;;;;;;0.00;0.00;;;12.50;99.90;;;;;;5068563;28;20514;-80
2023/12/24 15:47:20;;;;;;;0.00;0.00;;;11.70;99.90;;;;;;5066993;28;20177;-83
2023/12/24 15:49:49;;;;;;;0.00;0.00;;;11.70;99.90;;;;;;5052309;28;20173;-81
2023/12/24 15:52:16;;;;;;;0.00;0.00;;;11.70;99.90;;;;;;5065479;28;20215;-78
2023/12/24 15:54:42;;;;;;;0.00;0.00;;;11.60;99.90;;;;;;5068868;28;20207;-79
2023/12/24 15:57:08;;;;;;;0.00;0.00;;;11.70;99.90;;;;;;5068226;28;20164;-80
2023/12/24 15:59:35;;;;;;;0.00;0.00;;;11.70;99.90;;;;;;5066507;28;20174;-79
2023/12/24 16:02:01;;;;;;;0.00;0.00;;;11.70;99.90;;;;;;5058797;28;20278;-82
2023/12/24 16:04:26;;;;;;;0.00;0.00;;;11.70;99.90;;;;;;5062994;28;20273;-80
2023/12/24 16:06:52;;;;;;;0.00;0.00;;;11.70;99.90;;;;;;5063858;28;20176;-80
2023/12/24 16:09:18;;;;;;;0.10;0.00;;;11.70;99.90;;;;;;5063795;28;20173;-83
2023/12/24 16:11:43;;;;;;;0.10;0.00;;;11.70;99.90;;;;;;5046793;28;20543;-77
2023/12/24 16:14:09;;;;;;;0.13;0.00;;;11.70;99.90;;;;;;5056259;28;20177;-77
2023/12/24 16:16:35;;;;;;;0.20;0.00;;;11.60;99.90;;;;;;5059742;28;20479;-80
2023/12/24 16:19:01;;;;;;;0.00;0.00;;;11.60;99.90;;;;;;5045585;28;20643;-78
2023/12/24 16:21:27;;;;;;;0.30;0.00;;;11.60;99.90;;;;;;5046448;28;20579;-79
2023/12/24 16:23:53;;;;;;;0.27;0.10;;;11.60;99.90;;;;;;5048868;28;20201;-79
2023/12/24 16:26:18;;;;;;;0.20;0.10;;;11.60;99.90;;;;;;5054180;28;20631;-82
2023/12/24 16:28:44;;;;;;;0.37;0.10;;;11.60;99.90;;;;;;5066554;28;20195;-82
2023/12/24 16:31:10;;;;;;;0.23;0.10;;;11.60;99.90;;;;;;5062775;28;20173;-82
2023/12/24 16:33:37;;;;;;;0.20;0.00;;;11.60;99.90;;;;;;5060405;28;20188;-82
2023/12/24 16:36:06;;;;;;;0.37;0.10;;;11.60;99.90;;;;;;5062741;28;20187;-81
2023/12/24 16:38:33;;;;;;;0.00;0.00;;;11.60;99.90;;;;;;5053069;28;20218;-79
2023/12/24 16:40:59;;;;;;;0.40;0.10;;;11.60;99.90;;;;;;5048300;28;20176;-82
2023/12/24 16:43:24;;;;;;;0.20;0.10;;;11.60;99.90;;;;;;5045943;28;20221;-81
2023/12/24 16:45:50;;;;;;;0.33;0.10;;;11.60;99.90;;;;;;5057039;28;20674;-78
2023/12/24 16:48:16;;;;;;;0.10;0.00;;;11.60;99.90;;;;;;5067120;28;20688;-78
2023/12/24 16:50:41;;;;;;;0.10;0.03;;;11.60;99.90;;;;;;5067105;28;20191;-80
2023/12/24 16:53:07;;;;;;;0.37;0.10;;;11.60;99.90;;;;;;5067019;28;20179;-79
2023/12/24 16:55:33;;;;;;;0.20;0.00;;;11.60;99.90;;;;;;5041954;28;20668;-78
2023/12/24 16:57:59;;;;;;;0.40;0.10;;;11.50;99.90;;;;;;5034237;28;20259;-79
2023/12/24 17:00:26;;;;;;;0.30;0.10;;;11.50;99.90;;;;;;5035924;28;20189;-78
2023/12/24 17:02:52;;;;;;;0.20;0.10;;;11.60;99.90;;;;;;5047577;28;20308;-77
2023/12/24 17:05:18;;;;;;;0.37;0.10;;;11.60;99.90;;;;;;5051652;28;20201;-79
2023/12/24 17:07:43;;;;;;;0.43;0.10;;;11.60;99.90;;;;;;5033483;28;20178;-80
2023/12/24 17:10:09;;;;;;;0.43;0.20;;;11.60;99.90;;;;;;5065480;28;20212;-80
2023/12/24 17:12:35;;;;;;;1.37;0.73;;;11.60;99.90;;;;;;5043064;28;20181;-78
2023/12/24 17:15:01;;;;;;;1.03;0.70;;;11.60;99.90;;;;;;5047359;28;20665;-80
2023/12/24 17:17:27;;;;;;;0.80;0.40;;;11.60;99.90;;;;;;5046589;28;20189;-79
2023/12/24 17:19:54;;;;;;;0.50;0.30;;;11.50;99.90;;;;;;5032843;28;20165;-83
2023/12/24 17:22:19;;;;;;;1.03;0.30;;;11.60;99.90;;;;;;5033277;28;20170;-78
2023/12/24 17:24:45;;;;;;;0.63;0.23;;;11.60;99.90;;;;;;5033134;28;20212;-78
2023/12/24 17:27:11;;;;;;;0.60;0.20;;;11.60;99.90;;;;;;5032344;28;20232;-78
2023/12/24 17:29:37;;;;;;;0.30;0.10;;;11.60;99.90;;;;;;5043519;28;20205;-78
2023/12/24 17:32:03;;;;;;;0.60;0.20;;;11.60;99.90;;;;;;5053034;28;20513;-80
2023/12/24 17:34:29;;;;;;;0.87;0.30;;;11.60;99.90;;;;;;5053118;28;20282;-82
2023/12/24 17:36:54;;;;;;;1.10;0.33;;;11.60;99.90;;;;;;5053063;28;20169;-80
2023/12/24 17:39:22;;;;;;;0.83;0.30;;;11.60;99.90;;;;;;5052795;28;20170;-80
2023/12/24 17:41:48;;;;;;;1.10;0.30;;;11.60;99.90;;;;;;5051553;28;20165;-80
2023/12/24 17:44:14;;;;;;;0.70;0.30;;;11.60;99.90;;;;;;5051059;28;20252;-79
2023/12/24 17:46:40;;;;;;;0.90;0.30;;;11.60;99.90;;;;;;5035583;28;20256;-79
2023/12/24 17:49:07;;;;;;;1.43;0.37;;;11.70;99.90;;;;;;5048347;28;20178;-81
2023/12/24 17:51:33;;;;;;;0.70;0.20;;;11.60;99.90;;;;;;5032939;28;20178;-82
2023/12/24 17:53:59;;;;;;;0.40;0.20;;;11.70;99.90;;;;;;5040495;28;20173;-83
2023/12/24 17:56:24;;;;;;;1.03;0.30;;;11.70;99.90;;;;;;5055864;28;20632;-81
2023/12/24 17:58:50;;;;;;;0.47;0.20;;;11.70;99.90;;;;;;5054114;28;20165;-81
2023/12/24 18:01:16;;;;;;;0.83;0.30;;;11.60;99.90;;;;;;5050788;28;20176;-81
2023/12/24 18:03:41;;;;;;;0.30;0.20;;;11.70;99.90;;;;;;5034544;28;20684;-81
2023/12/24 18:06:07;;;;;;;0.60;0.53;;;11.70;99.90;;;;;;5032649;28;20304;-79
2023/12/24 18:08:33;;;;;;;0.70;0.30;;;11.80;99.90;;;;;;5033150;28;20189;-79
2023/12/24 18:10:59;;;;;;;0.57;0.27;;;11.80;99.90;;;;;;5048981;28;20538;-80
2023/12/24 18:13:24;;;;;;;0.57;0.20;;;11.60;99.90;;;;;;5038590;28;20192;-77
2023/12/24 18:15:50;;;;;;;0.37;0.10;;;11.80;99.90;;;;;;5021220;28;20610;-78
2023/12/24 18:18:16;;;;;;;0.30;0.00;;;11.80;99.90;;;;;;5051477;28;20644;-78
2023/12/24 18:20:41;;;;;;;0.33;0.20;;;11.80;99.90;;;;;;5051758;28;20234;-78
2023/12/24 18:23:08;;;;;;;0.30;0.10;;;11.80;99.90;;;;;;5051830;28;20197;-79
2023/12/24 18:25:34;;;;;;;0.43;0.20;;;11.80;99.90;;;;;;5051543;28;20188;-80
2023/12/24 18:28:00;;;;;;;0.60;0.20;;;11.80;99.90;;;;;;5040828;28;20170;-78
2023/12/24 18:30:26;;;;;;;1.03;0.30;;;11.80;99.90;;;;;;5036712;28;20177;-81
2023/12/24 18:32:51;;;;;;;0.73;0.20;;;11.80;99.90;;;;;;5038027;28;20176;-79
2023/12/24 18:35:17;;;;;;;0.77;0.57;;;11.80;99.90;;;;;;5030875;28;20527;-79
2023/12/24 18:37:43;;;;;;;1.07;0.30;;;11.80;99.90;;;;;;5031175;28;20182;-79
2023/12/24 18:40:09;;;;;;;0.50;0.20;;;11.80;99.90;;;;;;5031460;28;20165;-81
2023/12/24 18:42:34;;;;;;;0.40;0.10;;;11.80;99.90;;;;;;5031084;28;20185;-79
2023/12/24 18:45:00;;;;;;;0.90;0.40;;;11.80;99.90;;;;;;5031417;28;20372;-79
2023/12/24 18:47:26;;;;;;;0.43;0.20;;;11.80;99.90;;;;;;5030972;28;20170;-78
2023/12/24 18:49:51;;;;;;;0.67;0.23;;;11.80;99.90;;;;;;5030914;28;20178;-80
2023/12/24 18:52:17;;;;;;;0.90;0.50;;;11.80;99.90;;;;;;5030318;28;20338;-80
2023/12/24 18:54:42;;;;;;;0.87;0.27;;;11.80;99.90;;;;;;5030405;28;20173;-79
2023/12/24 18:57:08;;;;;;;0.20;0.10;;;11.80;99.90;;;;;;5030658;28;20208;-78
2023/12/24 18:59:34;;;;;;;1.67;1.07;;;11.80;99.90;;;;;;5031031;28;20185;-78
2023/12/24 19:01:59;;;;;;;0.30;0.20;;;11.80;99.90;;;;;;5029642;28;20173;-81
2023/12/24 19:04:25;;;;;;;0.93;0.50;;;11.80;99.90;;;;;;5030831;28;20580;-78
2023/12/24 19:06:51;;;;;;;0.67;0.30;;;11.80;99.90;;;;;;5030710;28;20240;-78
2023/12/24 19:09:16;;;;;;;0.40;0.13;;;11.80;99.90;;;;;;5068082;28;20258;-78
2023/12/24 19:11:44;;;;;;;0.83;0.27;;;11.70;99.90;;;;;;5048268;28;20270;-78
2023/12/24 19:14:09;;;;;;;0.87;0.13;;;11.70;99.90;;;;;;5032340;28;20174;-79
2023/12/24 19:16:35;;;;;;;0.60;0.27;;;11.70;99.90;;;;;;5047780;28;20627;-78
2023/12/24 19:19:01;;;;;;;0.37;0.03;;;11.70;99.90;;;;;;5043441;28;20536;-79
2023/12/24 19:21:26;;;;;;;0.60;0.30;;;11.70;99.90;;;;;;5050047;28;20632;-78
2023/12/24 19:23:52;;;;;;;1.40;0.20;;;11.70;99.90;;;;;;5050313;28;20768;-80
2023/12/24 19:26:18;;;;;;;0.60;0.20;;;11.70;99.90;;;;;;5050420;28;20169;-77
2023/12/24 19:28:44;;;;;;;0.60;0.20;;;11.70;99.90;;;;;;5045314;28;20200;-79
2023/12/24 19:31:14;;;;;;;0.30;0.10;;;11.60;99.90;;;;;;5034435;28;20169;-84
2023/12/24 19:33:40;;;;;;;0.90;0.23;;;11.70;99.90;;;;;;5033668;28;20189;-78
2023/12/24 19:36:06;;;;;;;0.20;0.20;;;11.70;99.90;;;;;;5047928;28;20215;-77
2023/12/24 19:38:32;;;;;;;0.67;0.10;;;11.60;99.90;;;;;;5050385;28;20181;-78
2023/12/24 19:40:57;;;;;;;0.77;0.20;;;11.60;99.90;;;;;;5048927;28;20770;-77
2023/12/24 19:43:23;;;;;;;0.73;0.17;;;11.60;99.90;;;;;;5049710;28;20227;-78
2023/12/24 19:45:49;;;;;;;0.50;0.10;;;11.60;99.90;;;;;;5049861;28;20516;-86
2023/12/24 19:48:15;;;;;;;0.93;0.20;;;11.60;99.90;;;;;;5050033;28;20509;-78
2023/12/24 19:50:41;;;;;;;0.10;0.03;;;11.60;99.90;;;;;;5049696;28;20652;-81
2023/12/24 19:53:06;;;;;;;0.67;0.20;;;11.60;99.90;;;;;;5049417;28;20184;-78
2023/12/24 19:55:32;;;;;;;0.50;0.30;;;11.60;99.90;;;;;;5029721;28;20629;-82
2023/12/24 19:57:59;;;;;;;0.47;0.10;;;11.60;99.90;;;;;;5029287;28;20270;-79
2023/12/24 20:00:24;;;;;;;0.73;0.20;;;11.60;99.90;;;;;;5032031;28;20205;-77
2023/12/24 20:02:50;;;;;;;0.27;0.20;;;11.60;99.90;;;;;;5037779;28;20185;-78
2023/12/24 20:05:16;;;;;;;0.47;0.10;;;11.50;99.90;;;;;;5030467;28;20706;-81
2023/12/24 20:07:42;;;;;;;0.10;0.10;;;11.50;99.90;;;;;;5029936;28;20183;-78
2023/12/24 20:10:08;;;;;;;1.20;0.20;;;11.80;99.90;;;;;;5030392;28;20182;-80
2023/12/24 20:12:34;;;;;;;1.47;0.37;;;11.50;99.90;;;;;;5039001;28;20205;-79
2023/12/24 20:14:59;;;;;;;1.00;0.40;;;11.50;99.90;;;;;;5043563;28;20632;-78
2023/12/24 20:17:25;;;;;;;0.80;0.30;;;11.50;99.90;;;;;;5049995;28;20166;-77
2023/12/24 20:19:51;;;;;;;0.40;0.20;;;11.50;99.90;;;;;;5038303;28;20629;-75
2023/12/24 20:22:23;;;;;;;0.30;0.10;;;11.50;99.90;;;;;;5031250;28;20170;-83
2023/12/24 20:24:49;;;;;;;0.80;0.20;;;11.50;99.90;;;;;;5050275;28;20679;-82
2023/12/24 20:27:18;;;;;;;0.33;0.20;;;11.50;99.90;;;;;;5049834;28;20165;-80
2023/12/24 20:29:45;;;;;;;0.30;0.10;;;11.50;99.90;;;;;;5045957;28;20721;-79
2023/12/24 20:32:11;;;;;;;0.27;0.03;;;11.50;99.90;;;;;;5036902;28;20175;-79
2023/12/24 20:34:36;;;;;;;0.20;0.10;;;11.50;99.90;;;;;;5047413;28;20177;-81
2023/12/24 20:37:02;;;;;;;0.27;0.10;;;11.50;99.90;;;;;;5033629;28;20177;-82
2023/12/24 20:39:28;;;;;;;0.20;0.10;;;11.50;99.90;;;;;;5040953;28;20178;-82
2023/12/24 20:41:53;;;;;;;0.20;0.03;;;13.20;99.90;;;;;;5051317;28;20698;-76
2023/12/24 20:44:19;;;;;;;0.97;0.20;;;11.50;99.90;;;;;;5040290;28;20316;-80
2023/12/24 20:46:45;;;;;;;0.27;0.10;;;11.50;99.90;;;;;;5049648;28;20188;-77
2023/12/24 20:49:11;;;;;;;0.83;0.20;;;11.50;99.90;;;;;;5039547;28;20182;-77
2023/12/24 20:51:37;;;;;;;0.70;0.20;;;11.50;99.90;;;;;;5053023;28;20571;-76
2023/12/24 20:54:03;;;;;;;0.60;0.10;;;11.50;99.90;;;;;;5052798;28;20239;-77
2023/12/24 20:56:30;;;;;;;0.80;0.30;;;11.50;99.90;;;;;;5051236;28;20172;-77
2023/12/24 20:58:57;;;;;;;1.00;0.23;;;11.50;99.90;;;;;;5040418;28;20660;-78
2023/12/24 21:01:23;;;;;;;0.70;0.20;;;11.50;99.90;;;;;;5043895;28;20170;-80
2023/12/24 21:03:48;;;;;;;0.60;0.20;;;11.50;99.90;;;;;;5032114;28;20208;-78
2023/12/24 21:06:15;;;;;;;0.87;0.20;;;11.50;99.90;;;;;;5032970;28;20180;-77
2023/12/24 21:08:40;;;;;;;1.13;0.30;;;11.50;99.90;;;;;;5031117;28;20178;-77
2023/12/24 21:11:06;;;;;;;0.83;0.20;;;11.50;99.90;;;;;;5044138;28;20826;-76
2023/12/24 21:13:32;;;;;;;1.17;0.30;;;11.50;99.90;;;;;;5038826;28;20261;-77
2023/12/24 21:15:58;;;;;;;0.60;0.20;;;11.50;99.90;;;;;;5036438;28;20181;-77
2023/12/24 21:18:24;;;;;;;0.57;0.20;;;11.50;99.90;;;;;;5036708;28;20184;-77
2023/12/24 21:20:50;;;;;;;0.87;0.20;;;11.50;99.90;;;;;;5032764;28;20166;-78
2023/12/24 21:23:15;;;;;;;0.67;0.20;;;11.50;99.90;;;;;;5032433;28;20614;-78
2023/12/24 21:25:41;;;;;;;1.40;0.50;;;11.50;99.90;;;;;;5051550;28;20688;-78
2023/12/24 21:28:07;;;;;;;0.97;0.20;;;11.50;99.90;;;;;;5048533;28;20637;-78
2023/12/24 21:30:33;;;;;;;0.70;0.20;;;11.50;99.90;;;;;;5032239;28;20170;-79
2023/12/24 21:32:59;;;;;;;0.97;0.20;;;11.50;99.90;;;;;;5031168;28;20176;-77
2023/12/24 21:35:24;;;;;;;0.80;0.20;;;11.50;99.90;;;;;;5032080;28;20489;-78
2023/12/24 21:37:50;;;;;;;1.10;0.30;;;11.50;99.90;;;;;;5036610;28;20641;-78
2023/12/24 21:40:16;;;;;;;0.83;0.20;;;11.50;99.90;;;;;;5032571;28;20206;-78
2023/12/24 21:42:41;;;;;;;0.53;0.13;;;11.50;99.90;;;;;;5032097;28;20167;-80
2023/12/24 21:45:08;;;;;;;0.63;0.20;;;11.50;99.90;;;;;;5032546;28;20224;-78
2023/12/24 21:47:33;;;;;;;0.47;0.10;;;11.50;99.90;;;;;;5032196;28;20173;-80
2023/12/24 21:49:59;;;;;;;0.80;0.30;;;11.60;99.90;;;;;;5044340;28;20188;-79
2023/12/24 21:52:25;;;;;;;0.20;0.10;;;11.60;99.90;;;;;;5052163;28;20319;-78
2023/12/24 21:54:50;;;;;;;0.50;0.10;;;11.60;99.90;;;;;;5034039;28;20174;-79
2023/12/24 21:57:17;;;;;;;0.57;0.13;;;11.60;99.90;;;;;;5030990;28;20572;-78
2023/12/24 21:59:42;;;;;;;0.37;0.10;;;11.60;99.90;;;;;;5037979;28;20256;-78
2023/12/24 22:02:08;;;;;;;0.30;0.10;;;11.60;99.90;;;;;;5033589;28;20328;-78
2023/12/24 22:04:33;;;;;;;0.53;0.20;;;11.60;99.90;;;;;;5063221;28;20300;-79
2023/12/24 22:06:59;;;;;;;0.33;0.10;;;11.60;99.90;;;;;;5043458;28;20185;-78
2023/12/24 22:09:25;;;;;;;0.20;0.10;;;11.60;99.90;;;;;;5050495;28;20196;-79
2023/12/24 22:11:51;;;;;;;0.20;0.10;;;11.60;99.90;;;;;;5033117;28;20211;-79
2023/12/24 22:14:17;;;;;;;0.70;0.10;;;11.50;99.90;;;;;;5031348;28;20178;-80
2023/12/24 22:16:43;;;;;;;0.20;0.03;;;11.50;99.90;;;;;;5033695;28;20207;-80
2023/12/24 22:19:09;;;;;;;0.70;0.10;;;11.40;99.90;;;;;;5038483;28;20176;-79
2023/12/24 22:21:42;;;;;;;0.40;0.10;;;11.50;99.90;;;;;;5051397;28;20166;-79
2023/12/24 22:24:08;;;;;;;0.23;0.07;;;11.60;99.90;;;;;;5042045;28;20205;-79
2023/12/24 22:26:33;;;;;;;0.50;0.10;;;11.60;99.90;;;;;;5047121;28;20196;-79
2023/12/24 22:28:59;;;;;;;0.20;0.10;;;11.60;99.90;;;;;;5049698;28;20723;-79
2023/12/24 22:31:25;;;;;;;0.70;0.10;;;11.50;99.90;;;;;;5039190;28;20215;-78
2023/12/24 22:33:50;;;;;;;0.30;0.10;;;11.50;99.90;;;;;;5050988;28;20169;-77
2023/12/24 22:36:16;;;;;;;0.20;0.10;;;11.60;99.90;;;;;;5050624;28;20208;-78
2023/12/24 22:38:42;;;;;;;0.17;0.00;;;11.50;99.90;;;;;;5051359;28;20250;-81
2023/12/24 22:41:07;;;;;;;0.17;0.00;;;11.50;99.90;;;;;;5051189;28;20176;-84
2023/12/24 22:43:33;;;;;;;0.00;0.00;;;11.60;99.90;;;;;;5049717;28;20834;-77
2023/12/24 22:45:59;;;;;;;0.00;0.00;;;11.60;99.90;;;;;;5050842;28;20165;-82
